createdAt,value
2022-10-23T06:32:29.531Z,18.61
2022-10-23T06:34:59.393Z,18.54
2022-10-23T06:37:27.251Z,18.36
2022-10-23T06:39:55.472Z,18.58
2022-10-23T06:42:23.192Z,18.50
2022-10-23T06:44:51.058Z,18.58
2022-10-23T06:47:19.262Z,18.59
2022-10-23T06:49:47.179Z,18.53
2022-10-23T06:52:41.658Z,18.62
2022-10-23T06:55:05.019Z,18.55
2022-10-23T06:57:33.198Z,18.63
2022-10-23T07:00:00.976Z,18.72
2022-10-23T07:02:28.800Z,18.73
2022-10-23T07:04:57.062Z,18.74
2022-10-23T07:07:26.363Z,18.63
2022-10-23T07:09:54.303Z,18.73
2022-10-23T07:12:22.667Z,18.74
2022-10-23T07:14:50.451Z,18.73
2022-10-23T07:17:18.538Z,18.66
2022-10-23T07:19:48.503Z,18.84
2022-10-23T07:22:16.396Z,18.71
2022-10-23T07:24:46.352Z,18.76
2022-10-23T07:27:14.805Z,18.72
2022-10-23T07:29:45.104Z,18.80
2022-10-23T07:32:12.966Z,18.89
2022-10-23T07:34:41.234Z,18.81
2022-10-23T07:37:09.175Z,18.86
2022-10-23T07:39:37.027Z,18.76
2022-10-23T07:42:06.979Z,18.70
2022-10-23T07:44:34.782Z,18.81
2022-10-23T07:47:02.677Z,18.78
2022-10-23T07:49:30.783Z,18.75
2022-10-23T07:51:58.911Z,19.00
2022-10-23T07:54:26.847Z,18.89
2022-10-23T07:56:55.298Z,18.89
2022-10-23T07:59:24.623Z,18.80
2022-10-23T08:01:55.797Z,19.04
2022-10-23T08:04:24.969Z,18.95
2022-10-23T08:06:53.508Z,18.96
2022-10-23T08:09:21.322Z,19.04
2022-10-23T08:11:49.538Z,18.96
2022-10-23T08:14:17.760Z,18.91
2022-10-23T08:16:47.027Z,18.91
2022-10-23T08:19:15.430Z,18.99
2022-10-23T08:21:43.307Z,19.09
2022-10-23T08:24:13.885Z,19.09
2022-10-23T08:26:41.870Z,18.93
2022-10-23T08:29:09.767Z,19.03
2022-10-23T08:31:38.169Z,19.13
2022-10-23T08:34:07.445Z,19.06
2022-10-23T08:36:36.437Z,19.08
2022-10-23T08:39:05.038Z,19.14
2022-10-23T08:41:36.294Z,19.03
2022-10-23T08:44:11.258Z,19.05
2022-10-23T08:46:43.492Z,19.22
2022-10-23T08:49:26.138Z,18.98
2022-10-23T08:51:56.950Z,19.11
2022-10-23T08:54:29.640Z,19.11
2022-10-23T08:57:04.539Z,18.99
2022-10-23T08:59:40.821Z,18.96
2022-10-23T09:02:17.934Z,18.98
2022-10-23T09:04:50.100Z,18.98
2022-10-23T09:07:30.696Z,19.03
2022-10-23T09:10:09.036Z,19.17
2022-10-23T09:12:39.535Z,19.28
2022-10-23T09:15:24.080Z,19.30
2022-10-23T09:17:58.718Z,19.15
2022-10-23T09:20:30.730Z,19.29
2022-10-23T09:23:01.565Z,19.21
2022-10-23T09:25:32.328Z,19.33
2022-10-23T09:28:05.337Z,19.11
2022-10-23T09:30:36.800Z,19.32
2022-10-23T09:33:16.560Z,19.27
2022-10-23T09:35:57.181Z,19.42
2022-10-23T09:38:31.439Z,19.44
2022-10-23T09:41:01.782Z,19.37
2022-10-23T09:43:30.323Z,19.43
2022-10-23T09:46:00.379Z,19.50
2022-10-23T09:48:29.059Z,19.55
2022-10-23T09:51:00.843Z,19.54
2022-10-23T09:53:34.639Z,19.50
2022-10-23T09:56:05.021Z,19.62
2022-10-23T09:58:38.955Z,19.59
2022-10-23T10:01:07.217Z,19.61
2022-10-23T10:03:35.133Z,19.75
2022-10-23T10:06:06.128Z,19.69
2022-10-23T10:08:41.788Z,19.59
2022-10-23T10:11:17.424Z,19.71
2022-10-23T10:14:17.710Z,19.93
2022-10-23T10:16:53.165Z,19.97
2022-10-23T10:19:27.879Z,20.02
2022-10-23T10:22:09.405Z,19.96
2022-10-23T10:24:43.237Z,20.04
2022-10-23T10:27:22.614Z,20.07
2022-10-23T10:30:03.231Z,20.00
2022-10-23T10:32:39.474Z,20.20
2022-10-23T10:35:34.934Z,20.04
2022-10-23T10:38:32.327Z,20.16
2022-10-23T10:41:29.607Z,20.30
2022-10-23T10:44:09.881Z,20.32
2022-10-23T10:46:45.228Z,20.36
2022-10-23T10:49:17.894Z,20.42
2022-10-23T10:51:54.708Z,20.23
2022-10-23T10:54:37.515Z,20.33
2022-10-23T10:57:12.331Z,20.52
2022-10-23T10:59:44.290Z,20.45
2022-10-23T11:02:26.924Z,20.58
2022-10-23T11:05:01.973Z,20.45
2022-10-23T11:07:36.645Z,20.45
2022-10-23T11:10:16.861Z,20.60
2022-10-23T11:12:46.979Z,20.69
2022-10-23T11:15:18.089Z,20.67
2022-10-23T11:17:50.219Z,20.66
2022-10-23T11:20:29.749Z,20.74
2022-10-23T11:23:07.892Z,20.75
2022-10-23T11:25:58.605Z,20.88
2022-10-23T11:28:42.477Z,20.88
2022-10-23T11:31:22.278Z,20.96
2022-10-23T11:34:18.740Z,21.00
2022-10-23T11:36:50.594Z,21.00
2022-10-23T11:39:27.162Z,21.10
2022-10-23T11:41:58.864Z,21.05
2022-10-23T11:44:42.945Z,21.04
2022-10-23T11:47:35.141Z,21.05
2022-10-23T11:50:28.538Z,21.29
2022-10-23T11:53:13.672Z,21.24
2022-10-23T11:56:02.523Z,21.37
2022-10-23T11:58:43.299Z,21.32
2022-10-23T12:01:26.475Z,21.42
2022-10-23T12:04:03.434Z,21.25
2022-10-23T12:06:33.747Z,21.32
2022-10-23T12:09:06.677Z,21.38
2022-10-23T12:11:45.252Z,21.42
2022-10-23T12:14:34.023Z,21.61
2022-10-23T12:17:02.668Z,21.59
2022-10-23T12:19:39.211Z,21.54
2022-10-23T12:22:11.872Z,21.69
2022-10-23T12:24:56.751Z,21.75
2022-10-23T12:27:33.354Z,21.58
2022-10-23T12:30:21.539Z,21.86
2022-10-23T12:33:12.653Z,21.90
2022-10-23T12:36:26.920Z,21.93
2022-10-23T12:38:58.539Z,21.88
2022-10-23T12:41:28.114Z,21.86
2022-10-23T12:43:59.377Z,21.98
2022-10-23T12:46:34.410Z,22.05
2022-10-23T12:49:04.503Z,21.85
2022-10-23T12:51:35.181Z,22.08
2022-10-23T12:54:04.329Z,22.02
2022-10-23T12:56:37.526Z,22.14
2022-10-23T12:59:06.526Z,22.20
2022-10-23T13:01:37.688Z,22.24
2022-10-23T13:04:15.125Z,22.19
2022-10-23T13:06:43.832Z,22.16
2022-10-23T13:09:23.897Z,22.31
2022-10-23T13:11:53.235Z,22.40
2022-10-23T13:14:34.785Z,22.38
2022-10-23T13:17:09.401Z,22.46
2022-10-23T13:19:38.103Z,22.27
2022-10-23T13:22:16.552Z,22.39
2022-10-23T13:24:45.520Z,22.29
2022-10-23T13:27:26.755Z,22.36
2022-10-23T13:29:54.750Z,22.28
2022-10-23T13:32:26.798Z,22.29
2022-10-23T13:35:04.202Z,22.45
2022-10-23T13:37:38.415Z,22.44
2022-10-23T13:40:10.670Z,22.56
2022-10-23T13:42:38.532Z,22.55
2022-10-23T13:45:16.051Z,22.50
2022-10-23T13:47:45.605Z,22.46
2022-10-23T13:50:13.855Z,22.51
2022-10-23T13:52:42.285Z,22.47
2022-10-23T13:55:20.704Z,22.54
2022-10-23T13:57:49.077Z,22.54
2022-10-23T14:00:18.028Z,22.42
2022-10-23T14:02:47.254Z,22.48
2022-10-23T14:05:15.561Z,22.60
2022-10-23T14:07:43.706Z,22.61
2022-10-23T14:10:11.907Z,22.57
2022-10-23T14:12:42.060Z,22.61
2022-10-23T14:15:12.095Z,22.61
2022-10-23T14:17:40.244Z,22.59
2022-10-23T14:20:11.274Z,22.54
2022-10-23T14:22:39.197Z,22.57
2022-10-23T14:25:10.270Z,22.54
2022-10-23T14:27:38.240Z,22.51
2022-10-23T14:30:07.422Z,22.62
2022-10-23T14:32:35.448Z,22.57
2022-10-23T14:35:04.080Z,22.41
2022-10-23T14:37:34.093Z,22.56
2022-10-23T14:40:02.197Z,22.55
2022-10-23T14:42:34.362Z,22.59
2022-10-23T14:45:02.800Z,22.66
2022-10-23T14:47:31.237Z,22.61
2022-10-23T14:49:59.233Z,22.45
2022-10-23T14:52:27.185Z,22.64
2022-10-23T14:54:56.332Z,22.49
2022-10-23T14:57:24.345Z,22.58
2022-10-23T14:59:52.159Z,22.61
2022-10-23T15:02:19.936Z,22.48
2022-10-23T15:04:47.944Z,22.36
2022-10-23T15:07:15.780Z,22.47
2022-10-23T15:09:43.558Z,22.48
2022-10-23T15:12:13.154Z,22.54
2022-10-23T15:14:40.983Z,22.40
2022-10-23T15:17:14.553Z,22.48
2022-10-23T15:19:43.696Z,22.57
2022-10-23T15:22:11.888Z,22.58
2022-10-23T15:24:39.724Z,22.52
2022-10-23T15:27:07.577Z,22.55
2022-10-23T15:29:37.503Z,22.44
2022-10-23T15:32:07.696Z,22.46
2022-10-23T15:34:37.684Z,22.53
2022-10-23T15:37:05.693Z,22.33
2022-10-23T15:39:35.535Z,22.36
2022-10-23T15:42:05.716Z,22.51
2022-10-23T15:44:35.093Z,22.49
2022-10-23T15:47:04.785Z,22.39
2022-10-23T15:49:33.778Z,22.46
2022-10-23T15:52:02.362Z,22.53
2022-10-23T15:54:32.710Z,22.49
2022-10-23T15:57:01.805Z,22.52
2022-10-23T15:59:31.435Z,22.48
2022-10-23T16:01:59.823Z,22.51
2022-10-23T16:04:30.248Z,22.51
2022-10-23T16:06:58.237Z,22.37
2022-10-23T16:09:26.223Z,22.42
2022-10-23T16:11:55.021Z,22.31
2022-10-23T16:14:22.835Z,22.48
2022-10-23T16:16:50.780Z,22.34
2022-10-23T16:19:19.359Z,22.32
2022-10-23T16:21:48.656Z,22.45
2022-10-23T16:24:16.478Z,22.42
2022-10-23T16:26:46.009Z,22.40
2022-10-23T16:29:13.986Z,22.33
2022-10-23T16:31:42.236Z,22.32
2022-10-23T16:34:12.715Z,22.34
2022-10-23T16:36:42.944Z,22.08
2022-10-23T18:08:30.975Z,21.87
2022-10-23T18:11:01.076Z,21.94
2022-10-23T18:13:35.616Z,21.78
2022-10-23T18:16:11.517Z,21.80
2022-10-23T18:18:40.556Z,21.54
